sensor_id;sensor_type;location;lat;lon;timestamp;pressure;altitude;pressure_sealevel;temperature;humidity
72560;BME280;62987;52.382;9.752;2022-11-24T00:01:20;99750.16;;;7.48;81.77
72560;BME280;62987;52.382;9.752;2022-11-24T00:03:53;99746.06;;;7.41;81.38
72560;BME280;62987;52.382;9.752;2022-11-24T00:06:22;99751.09;;;7.47;80.85
72560;BME280;62987;52.382;9.752;2022-11-24T00:08:51;99755.63;;;7.45;81.56
72560;BME280;62987;52.382;9.752;2022-11-24T00:11:21;99758.16;;;7.46;81.37
72560;BME280;62987;52.382;9.752;2022-11-24T00:13:49;99754.75;;;7.44;80.97
72560;BME280;62987;52.382;9.752;2022-11-24T00:16:21;99760.81;;;7.46;81.81
72560;BME280;62987;52.382;9.752;2022-11-24T00:18:50;99764.16;;;7.31;81.57
72560;BME280;62987;52.382;9.752;2022-11-24T00:21:19;99758.44;;;7.40;81.44
72560;BME280;62987;52.382;9.752;2022-11-24T00:23:48;99762.72;;;7.24;80.98
72560;BME280;62987;52.382;9.752;2022-11-24T00:26:18;99767.72;;;7.30;81.10
72560;BME280;62987;52.382;9.752;2022-11-24T00:28:48;99771.03;;;7.35;81.08
72560;BME280;62987;52.382;9.752;2022-11-24T00:31:19;99780.16;;;7.28;81.12
72560;BME280;62987;52.382;9.752;2022-11-24T00:33:49;99771.81;;;7.17;81.18
72560;BME280;62987;52.382;9.752;2022-11-24T00:36:19;99777.22;;;7.14;81.71
72560;BME280;62987;52.382;9.752;2022-11-24T00:38:52;99763.34;;;7.09;81.06
72560;BME280;62987;52.382;9.752;2022-11-24T00:41:21;99791.53;;;7.10;81.56
72560;BME280;62987;52.382;9.752;2022-11-24T00:43:49;99787.97;;;7.11;81.28
72560;BME280;62987;52.382;9.752;2022-11-24T00:46:19;99794.69;;;7.18;81.26
72560;BME280;62987;52.382;9.752;2022-11-24T00:48:48;99782.78;;;7.08;81.63
72560;BME280;62987;52.382;9.752;2022-11-24T00:51:17;99803.22;;;7.04;81.70
72560;BME280;62987;52.382;9.752;2022-11-24T00:53:46;99804.09;;;7.05;81.71
72560;BME280;62987;52.382;9.752;2022-11-24T00:56:14;99803.94;;;7.08;81.77
72560;BME280;62987;52.382;9.752;2022-11-24T00:58:42;99807.84;;;6.99;81.78
72560;BME280;62987;52.382;9.752;2022-11-24T01:01:12;99800.91;;;6.97;82.28
72560;BME280;62987;52.382;9.752;2022-11-24T01:03:42;99807.75;;;7.01;82.13
72560;BME280;62987;52.382;9.752;2022-11-24T01:06:14;99799.06;;;6.99;81.88
72560;BME280;62987;52.382;9.752;2022-11-24T01:08:42;99799.91;;;6.99;82.29
72560;BME280;62987;52.382;9.752;2022-11-24T01:11:13;99802.63;;;6.98;82.14
72560;BME280;62987;52.382;9.752;2022-11-24T01:13:42;99796.81;;;7.10;81.61
72560;BME280;62987;52.382;9.752;2022-11-24T01:16:16;99803.56;;;7.17;81.71
72560;BME280;62987;52.382;9.752;2022-11-24T01:18:47;99795.63;;;7.17;82.07
72560;BME280;62987;52.382;9.752;2022-11-24T01:21:16;99802.09;;;7.10;81.42
72560;BME280;62987;52.382;9.752;2022-11-24T01:23:44;99810.94;;;7.09;81.53
72560;BME280;62987;52.382;9.752;2022-11-24T01:26:13;99815.91;;;7.16;81.65
72560;BME280;62987;52.382;9.752;2022-11-24T01:28:42;99815.97;;;7.15;81.44
72560;BME280;62987;52.382;9.752;2022-11-24T01:31:14;99813.28;;;7.16;81.68
72560;BME280;62987;52.382;9.752;2022-11-24T01:33:42;99816.84;;;7.15;81.85
72560;BME280;62987;52.382;9.752;2022-11-24T01:36:12;99817.84;;;7.13;81.49
72560;BME280;62987;52.382;9.752;2022-11-24T01:38:40;99813.59;;;7.09;81.87
72560;BME280;62987;52.382;9.752;2022-11-24T01:41:11;99816.38;;;7.06;82.23
72560;BME280;62987;52.382;9.752;2022-11-24T01:43:40;99816.38;;;7.06;81.91
72560;BME280;62987;52.382;9.752;2022-11-24T01:46:15;99820.91;;;7.02;82.03
72560;BME280;62987;52.382;9.752;2022-11-24T01:48:48;99816.38;;;7.06;82.21
72560;BME280;62987;52.382;9.752;2022-11-24T01:51:20;99825.34;;;7.02;82.43
72560;BME280;62987;52.382;9.752;2022-11-24T01:53:53;99831.56;;;7.01;82.23
72560;BME280;62987;52.382;9.752;2022-11-24T01:56:25;99826.97;;;7.06;82.10
72560;BME280;62987;52.382;9.752;2022-11-24T01:58:56;99827.94;;;7.03;82.08
72560;BME280;62987;52.382;9.752;2022-11-24T02:01:25;99834.28;;;6.99;82.52
72560;BME280;62987;52.382;9.752;2022-11-24T02:03:55;99832.34;;;7.03;82.65
72560;BME280;62987;52.382;9.752;2022-11-24T02:06:26;99837.38;;;7.09;82.06
72560;BME280;62987;52.382;9.752;2022-11-24T02:08:59;99836.22;;;7.16;81.98
72560;BME280;62987;52.382;9.752;2022-11-24T02:11:33;99840.69;;;7.14;82.27
72560;BME280;62987;52.382;9.752;2022-11-24T02:14:03;99843.88;;;7.22;81.83
72560;BME280;62987;52.382;9.752;2022-11-24T02:16:33;99839.84;;;7.34;81.82
72560;BME280;62987;52.382;9.752;2022-11-24T02:19:04;99842.03;;;7.24;82.05
72560;BME280;62987;52.382;9.752;2022-11-24T02:21:35;99839.13;;;7.30;81.50
72560;BME280;62987;52.382;9.752;2022-11-24T02:24:08;99841.91;;;7.27;81.88
72560;BME280;62987;52.382;9.752;2022-11-24T02:26:43;99845.09;;;7.35;81.55
72560;BME280;62987;52.382;9.752;2022-11-24T02:29:13;99846.06;;;7.33;82.01
72560;BME280;62987;52.382;9.752;2022-11-24T02:31:45;99843.84;;;7.44;81.26
72560;BME280;62987;52.382;9.752;2022-11-24T02:34:14;99843.34;;;7.34;81.49
72560;BME280;62987;52.382;9.752;2022-11-24T02:36:42;99851.13;;;7.39;82.09
72560;BME280;62987;52.382;9.752;2022-11-24T02:39:11;99857.25;;;7.39;82.19
72560;BME280;62987;52.382;9.752;2022-11-24T02:41:43;99850.00;;;7.44;82.10
72560;BME280;62987;52.382;9.752;2022-11-24T02:44:14;99864.47;;;7.56;81.28
72560;BME280;62987;52.382;9.752;2022-11-24T02:46:44;99852.75;;;7.61;81.41
72560;BME280;62987;52.382;9.752;2022-11-24T02:49:12;99854.47;;;7.62;81.50
72560;BME280;62987;52.382;9.752;2022-11-24T02:51:41;99852.75;;;7.61;81.61
72560;BME280;62987;52.382;9.752;2022-11-24T02:54:10;99859.63;;;7.66;81.26
72560;BME280;62987;52.382;9.752;2022-11-24T02:56:38;99865.38;;;7.75;80.74
72560;BME280;62987;52.382;9.752;2022-11-24T02:59:07;99861.22;;;7.70;81.61
72560;BME280;62987;52.382;9.752;2022-11-24T03:01:35;99869.16;;;7.70;81.08
72560;BME280;62987;52.382;9.752;2022-11-24T03:04:04;99870.53;;;7.78;80.73
72560;BME280;62987;52.382;9.752;2022-11-24T03:06:32;99867.22;;;7.73;80.87
72560;BME280;62987;52.382;9.752;2022-11-24T03:09:00;99878.84;;;7.71;80.95
72560;BME280;62987;52.382;9.752;2022-11-24T03:11:28;99865.97;;;7.82;81.04
72560;BME280;62987;52.382;9.752;2022-11-24T03:13:56;99876.84;;;7.76;81.30
72560;BME280;62987;52.382;9.752;2022-11-24T03:16:26;99875.06;;;7.76;81.19
72560;BME280;62987;52.382;9.752;2022-11-24T03:18:54;99883.59;;;7.83;81.07
72560;BME280;62987;52.382;9.752;2022-11-24T03:21:22;99873.13;;;7.80;80.84
72560;BME280;62987;52.382;9.752;2022-11-24T03:23:50;99886.22;;;7.83;80.96
72560;BME280;62987;52.382;9.752;2022-11-24T03:26:20;99883.44;;;7.86;80.74
72560;BME280;62987;52.382;9.752;2022-11-24T03:28:49;99892.28;;;7.85;81.09
72560;BME280;62987;52.382;9.752;2022-11-24T03:31:17;99888.44;;;7.92;80.56
72560;BME280;62987;52.382;9.752;2022-11-24T03:33:46;99887.69;;;7.90;80.89
72560;BME280;62987;52.382;9.752;2022-11-24T03:36:15;99892.75;;;7.94;80.65
72560;BME280;62987;52.382;9.752;2022-11-24T03:38:43;99892.03;;;7.91;80.78
72560;BME280;62987;52.382;9.752;2022-11-24T03:41:11;99895.34;;;7.96;81.19
72560;BME280;62987;52.382;9.752;2022-11-24T03:43:40;99897.19;;;7.94;80.44
72560;BME280;62987;52.382;9.752;2022-11-24T03:46:10;99894.66;;;7.91;80.43
72560;BME280;62987;52.382;9.752;2022-11-24T03:48:38;99895.19;;;7.99;80.83
72560;BME280;62987;52.382;9.752;2022-11-24T03:51:09;99895.25;;;7.97;80.73
72560;BME280;62987;52.382;9.752;2022-11-24T03:53:38;99902.59;;;7.91;80.92
72560;BME280;62987;52.382;9.752;2022-11-24T03:56:06;99903.41;;;7.93;80.71
72560;BME280;62987;52.382;9.752;2022-11-24T03:58:34;99905.53;;;7.85;81.01
72560;BME280;62987;52.382;9.752;2022-11-24T04:01:02;99905.69;;;7.82;80.87
72560;BME280;62987;52.382;9.752;2022-11-24T04:03:31;99911.91;;;7.81;81.33
72560;BME280;62987;52.382;9.752;2022-11-24T04:05:59;99911.03;;;7.80;80.79
72560;BME280;62987;52.382;9.752;2022-11-24T04:08:29;99920.91;;;7.77;81.01
72560;BME280;62987;52.382;9.752;2022-11-24T04:10:57;99918.66;;;7.88;80.70
72560;BME280;62987;52.382;9.752;2022-11-24T04:13:26;99920.56;;;7.84;81.26
72560;BME280;62987;52.382;9.752;2022-11-24T04:15:56;99926.38;;;7.92;80.67
72560;BME280;62987;52.382;9.752;2022-11-24T04:18:24;99919.44;;;7.90;81.00
72560;BME280;62987;52.382;9.752;2022-11-24T04:20:52;99925.66;;;7.89;81.09
72560;BME280;62987;52.382;9.752;2022-11-24T04:23:21;99926.19;;;7.77;81.18
72560;BME280;62987;52.382;9.752;2022-11-24T04:25:50;99930.44;;;7.81;81.69
72560;BME280;62987;52.382;9.752;2022-11-24T04:28:18;99931.63;;;7.74;82.21
72560;BME280;62987;52.382;9.752;2022-11-24T04:30:46;99926.47;;;7.71;81.78
72560;BME280;62987;52.382;9.752;2022-11-24T04:33:14;99930.16;;;7.67;81.93
72560;BME280;62987;52.382;9.752;2022-11-24T04:35:42;99929.88;;;7.73;82.06
72560;BME280;62987;52.382;9.752;2022-11-24T04:38:10;99935.06;;;7.76;81.93
72560;BME280;62987;52.382;9.752;2022-11-24T04:40:38;99936.97;;;7.72;82.44
72560;BME280;62987;52.382;9.752;2022-11-24T04:43:07;99938.25;;;7.84;81.85
72560;BME280;62987;52.382;9.752;2022-11-24T04:45:36;99943.81;;;7.78;82.18
72560;BME280;62987;52.382;9.752;2022-11-24T04:48:04;99947.75;;;7.88;81.53
72560;BME280;62987;52.382;9.752;2022-11-24T04:50:32;99948.69;;;7.87;81.33
72560;BME280;62987;52.382;9.752;2022-11-24T04:53:00;99955.72;;;7.88;81.01
72560;BME280;62987;52.382;9.752;2022-11-24T04:55:28;99959.81;;;7.95;81.47
72560;BME280;62987;52.382;9.752;2022-11-24T04:57:56;99956.69;;;7.85;81.42
72560;BME280;62987;52.382;9.752;2022-11-24T05:00:26;99965.38;;;7.89;81.04
72560;BME280;62987;52.382;9.752;2022-11-24T05:02:54;99964.72;;;7.84;81.71
72560;BME280;62987;52.382;9.752;2022-11-24T05:05:22;99963.00;;;7.83;81.52
72560;BME280;62987;52.382;9.752;2022-11-24T05:07:50;99966.16;;;7.71;81.96
72560;BME280;62987;52.382;9.752;2022-11-24T05:10:18;99969.69;;;7.71;82.36
72560;BME280;62987;52.382;9.752;2022-11-24T05:13:06;99969.84;;;7.67;82.46
72560;BME280;62987;52.382;9.752;2022-11-24T05:15:37;99972.91;;;7.57;82.27
72560;BME280;62987;52.382;9.752;2022-11-24T05:18:06;99973.25;;;7.48;82.92
72560;BME280;62987;52.382;9.752;2022-11-24T05:20:34;99974.50;;;7.40;83.12
72560;BME280;62987;52.382;9.752;2022-11-24T05:23:03;99981.91;;;7.32;83.38
72560;BME280;62987;52.382;9.752;2022-11-24T05:25:32;99982.16;;;7.26;83.15
72560;BME280;62987;52.382;9.752;2022-11-24T05:28:01;99988.41;;;7.23;83.35
72560;BME280;62987;52.382;9.752;2022-11-24T05:30:30;99993.13;;;7.15;84.36
72560;BME280;62987;52.382;9.752;2022-11-24T05:33:03;99998.56;;;7.12;84.17
72560;BME280;62987;52.382;9.752;2022-11-24T05:35:32;100000.28;;;7.13;84.55
72560;BME280;62987;52.382;9.752;2022-11-24T05:37:59;99989.16;;;7.05;84.26
72560;BME280;62987;52.382;9.752;2022-11-24T05:40:28;100002.94;;;7.13;83.92
72560;BME280;62987;52.382;9.752;2022-11-24T05:42:56;100006.41;;;7.13;83.74
72560;BME280;62987;52.382;9.752;2022-11-24T05:45:24;100007.50;;;7.08;84.27
72560;BME280;62987;52.382;9.752;2022-11-24T05:47:52;100013.63;;;7.10;84.15
72560;BME280;62987;52.382;9.752;2022-11-24T05:50:22;100012.13;;;7.03;83.91
72560;BME280;62987;52.382;9.752;2022-11-24T05:52:50;100015.94;;;6.96;84.43
72560;BME280;62987;52.382;9.752;2022-11-24T05:55:18;100021.34;;;6.93;84.39
72560;BME280;62987;52.382;9.752;2022-11-24T05:57:46;100026.50;;;6.96;84.61
72560;BME280;62987;52.382;9.752;2022-11-24T06:00:15;100025.25;;;6.82;85.31
72560;BME280;62987;52.382;9.752;2022-11-24T06:02:45;100034.09;;;6.81;85.78
72560;BME280;62987;52.382;9.752;2022-11-24T06:05:14;100035.47;;;6.92;85.25
72560;BME280;62987;52.382;9.752;2022-11-24T06:07:43;100015.47;;;6.85;85.50
72560;BME280;62987;52.382;9.752;2022-11-24T06:10:12;100033.63;;;6.94;85.30
72560;BME280;62987;52.382;9.752;2022-11-24T06:12:40;100040.41;;;7.01;85.63
72560;BME280;62987;52.382;9.752;2022-11-24T06:15:09;100047.19;;;7.08;85.07
72560;BME280;62987;52.382;9.752;2022-11-24T06:17:38;100034.78;;;7.10;84.68
72560;BME280;62987;52.382;9.752;2022-11-24T06:20:07;100035.97;;;7.01;85.10
72560;BME280;62987;52.382;9.752;2022-11-24T06:22:36;100045.81;;;6.98;84.98
72560;BME280;62987;52.382;9.752;2022-11-24T06:25:06;100051.78;;;7.03;84.43
72560;BME280;62987;52.382;9.752;2022-11-24T06:27:35;100053.75;;;6.98;84.74
72560;BME280;62987;52.382;9.752;2022-11-24T06:30:03;100056.50;;;6.95;84.84
72560;BME280;62987;52.382;9.752;2022-11-24T06:32:32;100058.44;;;6.90;85.46
72560;BME280;62987;52.382;9.752;2022-11-24T06:35:02;100058.34;;;6.93;85.11
72560;BME280;62987;52.382;9.752;2022-11-24T06:37:30;100057.34;;;6.95;85.13
72560;BME280;62987;52.382;9.752;2022-11-24T06:39:58;100065.91;;;7.02;85.29
72560;BME280;62987;52.382;9.752;2022-11-24T06:42:28;100067.38;;;7.10;85.05
72560;BME280;62987;52.382;9.752;2022-11-24T06:44:56;100066.16;;;7.19;84.59
72560;BME280;62987;52.382;9.752;2022-11-24T06:47:24;100062.13;;;7.32;83.77
72560;BME280;62987;52.382;9.752;2022-11-24T06:49:52;100073.44;;;7.36;83.77
72560;BME280;62987;52.382;9.752;2022-11-24T06:52:20;100056.34;;;7.44;83.78
72560;BME280;62987;52.382;9.752;2022-11-24T06:54:48;100060.94;;;7.39;83.36
72560;BME280;62987;52.382;9.752;2022-11-24T06:57:16;100066.13;;;7.42;83.48
72560;BME280;62987;52.382;9.752;2022-11-24T06:59:45;100070.25;;;7.49;83.45
72560;BME280;62987;52.382;9.752;2022-11-24T07:02:13;100074.63;;;7.50;82.95
72560;BME280;62987;52.382;9.752;2022-11-24T07:04:41;100079.09;;;7.48;83.60
72560;BME280;62987;52.382;9.752;2022-11-24T07:07:09;100079.81;;;7.52;82.84
72560;BME280;62987;52.382;9.752;2022-11-24T07:09:38;100082.00;;;7.64;82.46
72560;BME280;62987;52.382;9.752;2022-11-24T07:12:06;100078.09;;;7.73;82.56
72560;BME280;62987;52.382;9.752;2022-11-24T07:14:34;100074.94;;;7.65;83.04
72560;BME280;62987;52.382;9.752;2022-11-24T07:17:04;100079.16;;;7.69;82.66
72560;BME280;62987;52.382;9.752;2022-11-24T07:19:33;100088.69;;;7.73;82.35
72560;BME280;62987;52.382;9.752;2022-11-24T07:22:01;100087.22;;;7.87;82.03
72560;BME280;62987;52.382;9.752;2022-11-24T07:24:29;100081.31;;;7.81;81.52
72560;BME280;62987;52.382;9.752;2022-11-24T07:26:57;100095.72;;;7.95;81.18
72560;BME280;62987;52.382;9.752;2022-11-24T07:29:25;100103.72;;;7.94;81.56
72560;BME280;62987;52.382;9.752;2022-11-24T07:31:53;100099.47;;;7.90;81.62
72560;BME280;62987;52.382;9.752;2022-11-24T07:34:26;100110.13;;;7.88;81.88
72560;BME280;62987;52.382;9.752;2022-11-24T07:36:55;100106.56;;;7.89;81.73
72560;BME280;62987;52.382;9.752;2022-11-24T07:39:23;100113.34;;;7.96;81.20
72560;BME280;62987;52.382;9.752;2022-11-24T07:41:51;100129.22;;;7.96;81.33
72560;BME280;62987;52.382;9.752;2022-11-24T07:44:19;100127.53;;;7.94;81.47
72560;BME280;62987;52.382;9.752;2022-11-24T07:46:47;100132.94;;;7.91;81.54
72560;BME280;62987;52.382;9.752;2022-11-24T07:49:16;100135.75;;;7.88;81.74
72560;BME280;62987;52.382;9.752;2022-11-24T07:51:46;100151.88;;;8.03;81.29
72560;BME280;62987;52.382;9.752;2022-11-24T07:54:14;100149.91;;;8.09;81.00
72560;BME280;62987;52.382;9.752;2022-11-24T07:56:42;100141.91;;;8.10;81.13
72560;BME280;62987;52.382;9.752;2022-11-24T07:59:10;100150.44;;;8.17;80.77
72560;BME280;62987;52.382;9.752;2022-11-24T08:01:38;100132.03;;;8.14;81.06
72560;BME280;62987;52.382;9.752;2022-11-24T08:04:06;100155.63;;;8.41;80.13
72560;BME280;62987;52.382;9.752;2022-11-24T08:06:34;100155.88;;;8.56;79.92
72560;BME280;62987;52.382;9.752;2022-11-24T08:09:10;100151.97;;;8.64;79.14
72560;BME280;62987;52.382;9.752;2022-11-24T08:11:38;100154.19;;;8.55;78.43
72560;BME280;62987;52.382;9.752;2022-11-24T08:14:09;100163.34;;;8.68;79.16
72560;BME280;62987;52.382;9.752;2022-11-24T08:16:37;100154.03;;;8.58;78.93
72560;BME280;62987;52.382;9.752;2022-11-24T08:19:06;100159.66;;;8.70;78.42
72560;BME280;62987;52.382;9.752;2022-11-24T08:21:34;100156.31;;;8.87;77.91
72560;BME280;62987;52.382;9.752;2022-11-24T08:24:02;100142.34;;;8.82;77.64
72560;BME280;62987;52.382;9.752;2022-11-24T08:26:32;100161.88;;;8.81;77.72
72560;BME280;62987;52.382;9.752;2022-11-24T08:29:00;100159.44;;;8.95;77.73
72560;BME280;62987;52.382;9.752;2022-11-24T08:31:28;100160.84;;;8.83;77.59
72560;BME280;62987;52.382;9.752;2022-11-24T08:34:01;100164.19;;;8.68;77.98
72560;BME280;62987;52.382;9.752;2022-11-24T08:36:29;100168.16;;;8.78;78.16
72560;BME280;62987;52.382;9.752;2022-11-24T08:38:59;100168.38;;;8.94;78.07
72560;BME280;62987;52.382;9.752;2022-11-24T08:41:28;100173.25;;;9.03;77.04
72560;BME280;62987;52.382;9.752;2022-11-24T08:43:57;100177.00;;;9.18;76.38
72560;BME280;62987;52.382;9.752;2022-11-24T08:46:25;100178.84;;;9.36;75.81
72560;BME280;62987;52.382;9.752;2022-11-24T08:48:54;100180.84;;;9.50;75.25
72560;BME280;62987;52.382;9.752;2022-11-24T08:51:24;100188.25;;;9.62;75.26
72560;BME280;62987;52.382;9.752;2022-11-24T08:53:53;100197.72;;;9.68;74.80
72560;BME280;62987;52.382;9.752;2022-11-24T08:56:22;100201.59;;;9.79;74.67
72560;BME280;62987;52.382;9.752;2022-11-24T08:58:58;100215.97;;;9.75;74.40
72560;BME280;62987;52.382;9.752;2022-11-24T09:01:27;100218.78;;;9.72;74.17
72560;BME280;62987;52.382;9.752;2022-11-24T09:03:56;100216.03;;;10.30;73.09
72560;BME280;62987;52.382;9.752;2022-11-24T09:06:26;100227.50;;;10.66;71.29
72560;BME280;62987;52.382;9.752;2022-11-24T09:08:57;100228.47;;;10.29;71.75
72560;BME280;62987;52.382;9.752;2022-11-24T09:11:27;100225.94;;;10.26;72.73
72560;BME280;62987;52.382;9.752;2022-11-24T09:13:57;100226.94;;;11.79;67.77
72560;BME280;62987;52.382;9.752;2022-11-24T09:16:27;100228.00;;;11.42;67.58
72560;BME280;62987;52.382;9.752;2022-11-24T09:18:57;100229.91;;;11.55;67.78
72560;BME280;62987;52.382;9.752;2022-11-24T09:21:25;100223.78;;;11.38;68.13
72560;BME280;62987;52.382;9.752;2022-11-24T09:23:54;100225.34;;;13.85;61.27
72560;BME280;62987;52.382;9.752;2022-11-24T09:26:24;100222.78;;;15.94;52.84
72560;BME280;62987;52.382;9.752;2022-11-24T09:28:53;100218.97;;;14.83;55.96
72560;BME280;62987;52.382;9.752;2022-11-24T09:31:24;100222.66;;;13.43;60.88
72560;BME280;62987;52.382;9.752;2022-11-24T09:33:53;100234.53;;;12.18;64.87
72560;BME280;62987;52.382;9.752;2022-11-24T09:36:22;100236.19;;;11.54;67.51
72560;BME280;62987;52.382;9.752;2022-11-24T09:38:50;100233.78;;;11.50;68.14
72560;BME280;62987;52.382;9.752;2022-11-24T09:41:50;100237.56;;;11.29;69.51
72560;BME280;62987;52.382;9.752;2022-11-24T09:44:54;100237.97;;;11.38;68.97
72560;BME280;62987;52.382;9.752;2022-11-24T09:47:39;100233.81;;;11.66;67.88
72560;BME280;62987;52.382;9.752;2022-11-24T09:50:12;100236.09;;;11.40;67.86
72560;BME280;62987;52.382;9.752;2022-11-24T09:52:46;100237.19;;;11.19;69.12
72560;BME280;62987;52.382;9.752;2022-11-24T09:55:32;100245.03;;;11.05;69.23
72560;BME280;62987;52.382;9.752;2022-11-24T09:58:20;100238.47;;;11.12;69.80
72560;BME280;62987;52.382;9.752;2022-11-24T10:00:52;100244.44;;;11.83;68.01
72560;BME280;62987;52.382;9.752;2022-11-24T10:03:26;100238.88;;;13.40;61.25
72560;BME280;62987;52.382;9.752;2022-11-24T10:05:57;100233.97;;;16.61;52.71
72560;BME280;62987;52.382;9.752;2022-11-24T10:08:41;100235.66;;;19.08;45.10
72560;BME280;62987;52.382;9.752;2022-11-24T10:11:21;100239.34;;;16.24;51.31
72560;BME280;62987;52.382;9.752;2022-11-24T10:16:54;100241.41;;;18.18;47.03
72560;BME280;62987;52.382;9.752;2022-11-24T10:19:37;100233.47;;;21.79;38.67
72560;BME280;62987;52.382;9.752;2022-11-24T10:22:19;100240.47;;;22.74;36.22
72560;BME280;62987;52.382;9.752;2022-11-24T10:25:03;100240.69;;;19.85;41.71
72560;BME280;62987;52.382;9.752;2022-11-24T10:27:37;100243.63;;;18.67;44.15
72560;BME280;62987;52.382;9.752;2022-11-24T10:30:13;100240.88;;;18.46;45.80
72560;BME280;62987;52.382;9.752;2022-11-24T10:32:45;100243.69;;;19.40;43.83
72560;BME280;62987;52.382;9.752;2022-11-24T10:35:17;100250.59;;;17.82;46.67
72560;BME280;62987;52.382;9.752;2022-11-24T10:37:53;100260.78;;;16.97;49.46
72560;BME280;62987;52.382;9.752;2022-11-24T10:40:30;100263.44;;;16.13;51.54
72560;BME280;62987;52.382;9.752;2022-11-24T10:43:20;100259.03;;;16.12;51.54
72560;BME280;62987;52.382;9.752;2022-11-24T10:45:48;100257.16;;;16.25;52.20
72560;BME280;62987;52.382;9.752;2022-11-24T10:48:19;100254.00;;;17.15;49.10
72560;BME280;62987;52.382;9.752;2022-11-24T10:50:51;100257.19;;;17.78;47.83
72560;BME280;62987;52.382;9.752;2022-11-24T10:53:23;100248.91;;;16.52;50.96
72560;BME280;62987;52.382;9.752;2022-11-24T10:55:59;100257.81;;;16.16;51.91
72560;BME280;62987;52.382;9.752;2022-11-24T10:58:28;100257.34;;;16.35;51.90
72560;BME280;62987;52.382;9.752;2022-11-24T11:01:19;100254.66;;;15.73;52.93
72560;BME280;62987;52.382;9.752;2022-11-24T11:03:50;100260.09;;;14.55;56.96
72560;BME280;62987;52.382;9.752;2022-11-24T11:06:22;100239.09;;;13.65;59.21
72560;BME280;62987;52.382;9.752;2022-11-24T11:09:13;100257.81;;;14.34;58.63
72560;BME280;62987;52.382;9.752;2022-11-24T11:11:45;100262.31;;;14.20;57.55
72560;BME280;62987;52.382;9.752;2022-11-24T11:14:28;100265.75;;;14.50;56.46
72560;BME280;62987;52.382;9.752;2022-11-24T11:16:57;100260.78;;;15.10;55.95
72560;BME280;62987;52.382;9.752;2022-11-24T11:19:34;100276.19;;;15.46;54.24
72560;BME280;62987;52.382;9.752;2022-11-24T11:22:26;100270.25;;;14.21;57.06
72560;BME280;62987;52.382;9.752;2022-11-24T11:25:19;100281.03;;;13.20;59.98
72560;BME280;62987;52.382;9.752;2022-11-24T11:27:48;100284.84;;;13.31;60.09
72560;BME280;62987;52.382;9.752;2022-11-24T11:30:20;100282.75;;;13.06;60.25
72560;BME280;62987;52.382;9.752;2022-11-24T11:33:19;100272.59;;;12.97;60.94
72560;BME280;62987;52.382;9.752;2022-11-24T11:36:09;100293.28;;;12.93;61.66
72560;BME280;62987;52.382;9.752;2022-11-24T11:38:40;100292.78;;;12.71;62.17
72560;BME280;62987;52.382;9.752;2022-11-24T11:41:16;100295.13;;;12.46;63.44
72560;BME280;62987;52.382;9.752;2022-11-24T11:43:51;100294.19;;;12.47;63.02
72560;BME280;62987;52.382;9.752;2022-11-24T11:46:24;100305.06;;;12.44;63.28
72560;BME280;62987;52.382;9.752;2022-11-24T11:48:57;100300.47;;;12.46;63.38
72560;BME280;62987;52.382;9.752;2022-11-24T11:51:35;100302.53;;;12.72;62.14
72560;BME280;62987;52.382;9.752;2022-11-24T11:54:14;100297.47;;;12.52;62.60
72560;BME280;62987;52.382;9.752;2022-11-24T11:56:47;100307.63;;;12.76;62.21
72560;BME280;62987;52.382;9.752;2022-11-24T11:59:41;100302.38;;;12.75;61.75
72560;BME280;62987;52.382;9.752;2022-11-24T12:02:42;100298.09;;;12.57;62.26
72560;BME280;62987;52.382;9.752;2022-11-24T12:05:27;100306.47;;;12.65;61.86
72560;BME280;62987;52.382;9.752;2022-11-24T12:08:05;100318.28;;;12.76;61.34
72560;BME280;62987;52.382;9.752;2022-11-24T12:10:57;100309.56;;;12.89;61.36
72560;BME280;62987;52.382;9.752;2022-11-24T12:14:00;100316.72;;;12.88;61.39
72560;BME280;62987;52.382;9.752;2022-11-24T12:16:41;100322.56;;;12.95;61.23
72560;BME280;62987;52.382;9.752;2022-11-24T12:19:27;100323.81;;;13.03;60.93
72560;BME280;62987;52.382;9.752;2022-11-24T12:22:05;100328.97;;;12.61;61.57
72560;BME280;62987;52.382;9.752;2022-11-24T12:24:41;100331.72;;;12.75;61.68
72560;BME280;62987;52.382;9.752;2022-11-24T12:27:20;100337.66;;;12.49;62.37
72560;BME280;62987;52.382;9.752;2022-11-24T12:30:03;100301.00;;;12.52;62.05
72560;BME280;62987;52.382;9.752;2022-11-24T12:32:47;100332.31;;;12.80;61.76
72560;BME280;62987;52.382;9.752;2022-11-24T12:35:24;100328.47;;;12.70;61.80
72560;BME280;62987;52.382;9.752;2022-11-24T12:38:02;100332.06;;;12.69;61.46
72560;BME280;62987;52.382;9.752;2022-11-24T12:40:41;100338.22;;;13.16;60.18
72560;BME280;62987;52.382;9.752;2022-11-24T12:43:18;100328.22;;;13.04;60.35
72560;BME280;62987;52.382;9.752;2022-11-24T12:45:56;100347.13;;;13.31;60.04
72560;BME280;62987;52.382;9.752;2022-11-24T12:48:39;100345.34;;;13.32;59.77
72560;BME280;62987;52.382;9.752;2022-11-24T12:51:16;100353.75;;;12.94;61.02
72560;BME280;62987;52.382;9.752;2022-11-24T12:53:45;100341.06;;;13.13;60.30
72560;BME280;62987;52.382;9.752;2022-11-24T12:56:18;100349.09;;;13.13;60.60
72560;BME280;62987;52.382;9.752;2022-11-24T12:58:53;100366.13;;;12.48;62.08
72560;BME280;62987;52.382;9.752;2022-11-24T13:01:29;100365.28;;;12.48;62.06
72560;BME280;62987;52.382;9.752;2022-11-24T13:04:08;100354.38;;;12.19;62.83
72560;BME280;62987;52.382;9.752;2022-11-24T13:06:47;100362.16;;;12.39;61.76
72560;BME280;62987;52.382;9.752;2022-11-24T13:09:19;100352.69;;;12.18;62.51
72560;BME280;62987;52.382;9.752;2022-11-24T13:11:48;100352.25;;;11.93;63.74
72560;BME280;62987;52.382;9.752;2022-11-24T13:14:20;100367.72;;;12.19;63.40
72560;BME280;62987;52.382;9.752;2022-11-24T13:16:54;100367.09;;;11.98;63.70
72560;BME280;62987;52.382;9.752;2022-11-24T13:19:42;100374.69;;;11.89;64.36
72560;BME280;62987;52.382;9.752;2022-11-24T13:22:16;100382.69;;;11.89;64.30
72560;BME280;62987;52.382;9.752;2022-11-24T13:25:02;100391.63;;;11.88;64.66
72560;BME280;62987;52.382;9.752;2022-11-24T13:27:40;100391.97;;;12.15;64.31
72560;BME280;62987;52.382;9.752;2022-11-24T13:33:38;100393.94;;;12.11;64.88